ADDS TAF Data INFO
IDs: Format: Raw Decoded Include METARs

Data at: 2051 UTC 16 Jan 2018

KBKW 162046Z AUTO 31005KT 1 1/4SM -SN BR SCT005 BKN012 OVC020 M01/M03 A3024 RMK AO2 CIG 005 RWY19 SLP269 P0003 60004 T10111028 55001 TSNO

KBKW 161727Z 1618/1718 34003KT P6SM OVC050
  TEMPO 1620/1623 2SM -SN OVC012
  FM162300 30003KT 1/2SM -SN FG OVC005
  FM170500 32008KT P6SM BKN015